sensor_id;sensor_type;location;lat;lon;timestamp;P1;P2;P0
73546;PMS7003;61807;48.384;-4.386;2023-01-01T00:00:58;4.50;1.25;0.00
73546;PMS7003;61807;48.384;-4.386;2023-01-01T00:03:23;1.75;0.50;0.00
73546;PMS7003;61807;48.384;-4.386;2023-01-01T00:05:49;4.00;0.00;0.00
73546;PMS7003;61807;48.384;-4.386;2023-01-01T00:08:14;3.25;1.00;0.25
73546;PMS7003;61807;48.384;-4.386;2023-01-01T00:10:40;10.25;1.00;0.00
73546;PMS7003;61807;48.384;-4.386;2023-01-01T00:13:05;5.00;0.25;0.00
73546;PMS7003;61807;48.384;-4.386;2023-01-01T00:15:31;6.75;3.00;1.00
73546;PMS7003;61807;48.384;-4.386;2023-01-01T00:17:57;4.25;1.25;0.50
73546;PMS7003;61807;48.384;-4.386;2023-01-01T00:20:22;3.50;0.75;0.00
73546;PMS7003;61807;48.384;-4.386;2023-01-01T00:22:48;4.25;1.00;1.00
73546;PMS7003;61807;48.384;-4.386;2023-01-01T00:25:13;11.00;3.00;1.00
73546;PMS7003;61807;48.384;-4.386;2023-01-01T00:27:39;4.00;2.25;1.00
73546;PMS7003;61807;48.384;-4.386;2023-01-01T00:30:08;4.00;1.50;0.00
73546;PMS7003;61807;48.384;-4.386;2023-01-01T00:32:34;2.00;2.00;0.75
73546;PMS7003;61807;48.384;-4.386;2023-01-01T00:35:00;7.75;1.00;0.00
73546;PMS7003;61807;48.384;-4.386;2023-01-01T00:37:26;7.50;1.25;0.50
73546;PMS7003;61807;48.384;-4.386;2023-01-01T00:39:51;7.50;1.50;1.00
73546;PMS7003;61807;48.384;-4.386;2023-01-01T00:42:17;8.50;1.50;0.00
73546;PMS7003;61807;48.384;-4.386;2023-01-01T00:44:42;7.50;1.75;1.00
73546;PMS7003;61807;48.384;-4.386;2023-01-01T00:47:08;8.50;2.00;1.00
73546;PMS7003;61807;48.384;-4.386;2023-01-01T00:49:33;6.00;2.25;1.00
73546;PMS7003;61807;48.384;-4.386;2023-01-01T00:51:59;5.25;0.00;0.00
73546;PMS7003;61807;48.384;-4.386;2023-01-01T00:54:24;6.00;1.75;1.00
73546;PMS7003;61807;48.384;-4.386;2023-01-01T00:56:50;5.00;1.00;0.25
73546;PMS7003;61807;48.384;-4.386;2023-01-01T00:59:15;6.00;2.00;0.00
73546;PMS7003;61807;48.384;-4.386;2023-01-01T01:01:40;6.25;2.00;0.75
73546;PMS7003;61807;48.384;-4.386;2023-01-01T01:04:06;5.00;1.75;0.50
73546;PMS7003;61807;48.384;-4.386;2023-01-01T01:06:33;9.75;2.25;0.75
73546;PMS7003;61807;48.384;-4.386;2023-01-01T01:08:59;4.75;2.00;1.00
73546;PMS7003;61807;48.384;-4.386;2023-01-01T01:11:24;8.25;4.00;1.25
73546;PMS7003;61807;48.384;-4.386;2023-01-01T01:13:51;10.25;1.00;0.00
73546;PMS7003;61807;48.384;-4.386;2023-01-01T01:16:26;7.25;4.00;1.00
73546;PMS7003;61807;48.384;-4.386;2023-01-01T01:18:54;4.25;1.00;0.00
73546;PMS7003;61807;48.384;-4.386;2023-01-01T01:21:24;5.00;3.50;1.25
73546;PMS7003;61807;48.384;-4.386;2023-01-01T01:23:52;5.50;2.00;1.00
73546;PMS7003;61807;48.384;-4.386;2023-01-01T01:28:45;7.00;2.00;1.00
73546;PMS7003;61807;48.384;-4.386;2023-01-01T01:31:11;8.00;1.00;0.25
73546;PMS7003;61807;48.384;-4.386;2023-01-01T01:33:37;5.25;1.75;1.00
73546;PMS7003;61807;48.384;-4.386;2023-01-01T01:36:03;4.00;2.00;0.00
73546;PMS7003;61807;48.384;-4.386;2023-01-01T01:38:29;12.25;7.00;3.75
73546;PMS7003;61807;48.384;-4.386;2023-01-01T01:40:55;2.75;1.00;0.00
73546;PMS7003;61807;48.384;-4.386;2023-01-01T01:45:49;5.50;1.75;1.00
73546;PMS7003;61807;48.384;-4.386;2023-01-01T01:48:20;2.00;0.25;0.00
73546;PMS7003;61807;48.384;-4.386;2023-01-01T01:50:48;3.25;1.25;1.00
73546;PMS7003;61807;48.384;-4.386;2023-01-01T01:53:20;3.50;1.75;1.00
73546;PMS7003;61807;48.384;-4.386;2023-01-01T01:55:55;4.75;1.75;1.00
73546;PMS7003;61807;48.384;-4.386;2023-01-01T01:58:23;4.00;3.00;1.00
73546;PMS7003;61807;48.384;-4.386;2023-01-01T02:00:51;8.25;1.00;0.00
73546;PMS7003;61807;48.384;-4.386;2023-01-01T02:06:13;4.75;1.00;1.00
73546;PMS7003;61807;48.384;-4.386;2023-01-01T02:08:39;7.00;1.25;0.50
73546;PMS7003;61807;48.384;-4.386;2023-01-01T02:11:05;5.25;2.00;1.00
73546;PMS7003;61807;48.384;-4.386;2023-01-01T02:13:30;5.75;1.00;0.00
73546;PMS7003;61807;48.384;-4.386;2023-01-01T02:15:59;4.75;2.00;1.00
73546;PMS7003;61807;48.384;-4.386;2023-01-01T02:21:36;9.75;3.00;0.00
73546;PMS7003;61807;48.384;-4.386;2023-01-01T02:27:12;5.25;1.00;0.50
73546;PMS7003;61807;48.384;-4.386;2023-01-01T02:29:51;5.50;1.00;1.00
73546;PMS7003;61807;48.384;-4.386;2023-01-01T02:32:28;9.75;2.00;0.00
73546;PMS7003;61807;48.384;-4.386;2023-01-01T02:35:06;3.75;2.00;1.00
73546;PMS7003;61807;48.384;-4.386;2023-01-01T02:37:58;5.00;0.75;0.00
73546;PMS7003;61807;48.384;-4.386;2023-01-01T02:40:29;2.75;1.50;0.25
73546;PMS7003;61807;48.384;-4.386;2023-01-01T02:42:55;5.00;1.00;0.00
73546;PMS7003;61807;48.384;-4.386;2023-01-01T02:45:22;6.75;2.00;0.00
73546;PMS7003;61807;48.384;-4.386;2023-01-01T02:47:48;1.00;1.00;0.00
73546;PMS7003;61807;48.384;-4.386;2023-01-01T02:50:20;6.00;2.00;0.00
73546;PMS7003;61807;48.384;-4.386;2023-01-01T02:58:34;3.00;2.00;0.00
73546;PMS7003;61807;48.384;-4.386;2023-01-01T03:01:36;6.25;2.00;1.00
73546;PMS7003;61807;48.384;-4.386;2023-01-01T03:04:21;7.00;1.25;1.00
73546;PMS7003;61807;48.384;-4.386;2023-01-01T03:06:51;8.25;2.50;1.00
73546;PMS7003;61807;48.384;-4.386;2023-01-01T03:12:22;6.25;1.50;1.00
73546;PMS7003;61807;48.384;-4.386;2023-01-01T03:17:44;5.75;1.75;1.00
73546;PMS7003;61807;48.384;-4.386;2023-01-01T03:20:13;6.00;2.25;1.00
73546;PMS7003;61807;48.384;-4.386;2023-01-01T03:22:46;5.25;1.00;0.00
73546;PMS7003;61807;48.384;-4.386;2023-01-01T03:25:15;6.00;1.75;1.00
73546;PMS7003;61807;48.384;-4.386;2023-01-01T03:28:09;5.25;2.00;1.00
73546;PMS7003;61807;48.384;-4.386;2023-01-01T03:30:38;9.00;3.00;1.00
73546;PMS7003;61807;48.384;-4.386;2023-01-01T03:33:41;11.00;4.50;1.00
73546;PMS7003;61807;48.384;-4.386;2023-01-01T03:43:52;5.75;2.00;1.00
73546;PMS7003;61807;48.384;-4.386;2023-01-01T03:46:25;10.25;4.50;1.00
73546;PMS7003;61807;48.384;-4.386;2023-01-01T03:48:54;6.00;2.25;1.00
73546;PMS7003;61807;48.384;-4.386;2023-01-01T03:54:07;7.25;4.25;0.75
73546;PMS7003;61807;48.384;-4.386;2023-01-01T03:57:03;6.75;1.00;0.00
73546;PMS7003;61807;48.384;-4.386;2023-01-01T04:02:24;13.75;2.25;1.00
73546;PMS7003;61807;48.384;-4.386;2023-01-01T04:04:54;8.50;2.00;0.00
73546;PMS7003;61807;48.384;-4.386;2023-01-01T04:07:23;3.00;2.00;0.50
73546;PMS7003;61807;48.384;-4.386;2023-01-01T04:09:49;11.25;1.00;1.00
73546;PMS7003;61807;48.384;-4.386;2023-01-01T04:12:18;10.00;1.25;0.75
73546;PMS7003;61807;48.384;-4.386;2023-01-01T04:14:44;5.00;2.00;1.00
73546;PMS7003;61807;48.384;-4.386;2023-01-01T04:17:10;7.00;1.25;0.00
73546;PMS7003;61807;48.384;-4.386;2023-01-01T04:19:36;3.00;0.00;0.00
73546;PMS7003;61807;48.384;-4.386;2023-01-01T04:22:02;5.75;1.00;0.00
73546;PMS7003;61807;48.384;-4.386;2023-01-01T04:24:28;4.50;0.00;0.00
73546;PMS7003;61807;48.384;-4.386;2023-01-01T04:26:54;6.25;1.75;0.75
73546;PMS7003;61807;48.384;-4.386;2023-01-01T04:29:20;5.75;2.75;0.25
73546;PMS7003;61807;48.384;-4.386;2023-01-01T04:31:46;7.50;1.25;0.00
73546;PMS7003;61807;48.384;-4.386;2023-01-01T04:34:12;5.50;0.50;0.00
73546;PMS7003;61807;48.384;-4.386;2023-01-01T04:36:38;2.25;0.50;0.00
73546;PMS7003;61807;48.384;-4.386;2023-01-01T04:39:04;4.50;1.00;0.00
73546;PMS7003;61807;48.384;-4.386;2023-01-01T04:41:29;5.00;1.00;1.00
73546;PMS7003;61807;48.384;-4.386;2023-01-01T04:43:55;3.00;2.25;1.00
73546;PMS7003;61807;48.384;-4.386;2023-01-01T04:46:21;3.50;1.00;0.00
73546;PMS7003;61807;48.384;-4.386;2023-01-01T04:48:47;6.00;0.50;0.00
73546;PMS7003;61807;48.384;-4.386;2023-01-01T04:51:14;3.25;1.00;0.00
73546;PMS7003;61807;48.384;-4.386;2023-01-01T04:53:40;5.25;1.00;0.00
73546;PMS7003;61807;48.384;-4.386;2023-01-01T04:56:07;13.75;2.00;0.75
73546;PMS7003;61807;48.384;-4.386;2023-01-01T04:58:40;2.00;1.00;0.00
73546;PMS7003;61807;48.384;-4.386;2023-01-01T05:01:07;5.00;1.75;0.00
73546;PMS7003;61807;48.384;-4.386;2023-01-01T05:03:38;5.00;1.25;0.00
73546;PMS7003;61807;48.384;-4.386;2023-01-01T05:06:04;6.25;1.00;0.50
73546;PMS7003;61807;48.384;-4.386;2023-01-01T05:08:31;3.00;0.75;0.00
73546;PMS7003;61807;48.384;-4.386;2023-01-01T05:10:59;2.00;1.00;1.00
73546;PMS7003;61807;48.384;-4.386;2023-01-01T05:13:25;5.75;0.75;0.00
73546;PMS7003;61807;48.384;-4.386;2023-01-01T05:15:51;1.75;0.00;0.00
73546;PMS7003;61807;48.384;-4.386;2023-01-01T05:18:17;7.25;1.75;0.50
73546;PMS7003;61807;48.384;-4.386;2023-01-01T05:20:42;4.75;2.00;0.00
73546;PMS7003;61807;48.384;-4.386;2023-01-01T05:23:07;5.75;1.75;0.50
73546;PMS7003;61807;48.384;-4.386;2023-01-01T05:25:33;4.00;3.00;0.25
73546;PMS7003;61807;48.384;-4.386;2023-01-01T05:27:58;4.75;1.00;1.00
73546;PMS7003;61807;48.384;-4.386;2023-01-01T05:30:23;6.00;2.00;1.00
73546;PMS7003;61807;48.384;-4.386;2023-01-01T05:32:49;9.50;2.00;0.00
73546;PMS7003;61807;48.384;-4.386;2023-01-01T05:35:14;7.50;1.75;1.00
73546;PMS7003;61807;48.384;-4.386;2023-01-01T05:37:39;8.50;1.00;0.00
73546;PMS7003;61807;48.384;-4.386;2023-01-01T05:40:05;7.50;3.00;0.50
73546;PMS7003;61807;48.384;-4.386;2023-01-01T05:42:31;9.50;2.75;1.00
73546;PMS7003;61807;48.384;-4.386;2023-01-01T05:44:56;6.50;1.50;0.00
73546;PMS7003;61807;48.384;-4.386;2023-01-01T05:47:21;10.50;2.25;1.00
73546;PMS7003;61807;48.384;-4.386;2023-01-01T05:49:47;7.25;3.00;1.50
73546;PMS7003;61807;48.384;-4.386;2023-01-01T05:52:12;5.75;1.50;1.00
73546;PMS7003;61807;48.384;-4.386;2023-01-01T05:54:37;5.00;3.75;1.25
73546;PMS7003;61807;48.384;-4.386;2023-01-01T05:57:03;5.00;2.00;1.25
73546;PMS7003;61807;48.384;-4.386;2023-01-01T05:59:28;4.75;2.00;1.00
73546;PMS7003;61807;48.384;-4.386;2023-01-01T06:01:54;8.00;2.00;1.00
73546;PMS7003;61807;48.384;-4.386;2023-01-01T06:04:19;8.50;3.50;1.00
73546;PMS7003;61807;48.384;-4.386;2023-01-01T06:06:44;8.00;3.00;1.00
73546;PMS7003;61807;48.384;-4.386;2023-01-01T06:09:10;3.25;2.25;1.00
73546;PMS7003;61807;48.384;-4.386;2023-01-01T06:11:35;11.25;2.00;1.00
73546;PMS7003;61807;48.384;-4.386;2023-01-01T06:14:01;6.50;2.00;1.00
73546;PMS7003;61807;48.384;-4.386;2023-01-01T06:16:27;5.75;1.50;0.75
73546;PMS7003;61807;48.384;-4.386;2023-01-01T06:18:54;5.75;2.25;1.00
73546;PMS7003;61807;48.384;-4.386;2023-01-01T06:21:20;8.00;3.00;1.00
73546;PMS7003;61807;48.384;-4.386;2023-01-01T06:23:47;4.75;2.00;1.00
73546;PMS7003;61807;48.384;-4.386;2023-01-01T06:26:14;10.00;2.25;1.00
73546;PMS7003;61807;48.384;-4.386;2023-01-01T06:28:41;12.50;2.75;1.00
73546;PMS7003;61807;48.384;-4.386;2023-01-01T06:31:08;9.75;3.50;1.00
73546;PMS7003;61807;48.384;-4.386;2023-01-01T06:33:36;17.25;5.75;1.00
73546;PMS7003;61807;48.384;-4.386;2023-01-01T06:36:03;10.75;4.00;1.00
73546;PMS7003;61807;48.384;-4.386;2023-01-01T06:38:31;5.25;2.50;0.75
73546;PMS7003;61807;48.384;-4.386;2023-01-01T06:40:57;9.00;3.00;1.00
73546;PMS7003;61807;48.384;-4.386;2023-01-01T06:43:25;8.75;1.75;1.00
73546;PMS7003;61807;48.384;-4.386;2023-01-01T06:48:49;10.00;2.00;1.00
73546;PMS7003;61807;48.384;-4.386;2023-01-01T06:51:20;7.25;1.00;0.00
73546;PMS7003;61807;48.384;-4.386;2023-01-01T06:53:47;5.75;4.50;1.00
73546;PMS7003;61807;48.384;-4.386;2023-01-01T06:56:13;4.75;4.00;1.00
73546;PMS7003;61807;48.384;-4.386;2023-01-01T06:58:39;7.50;3.50;1.00
73546;PMS7003;61807;48.384;-4.386;2023-01-01T07:01:08;7.00;2.00;1.00
73546;PMS7003;61807;48.384;-4.386;2023-01-01T07:03:36;8.25;3.00;1.00
73546;PMS7003;61807;48.384;-4.386;2023-01-01T07:06:02;20.00;3.00;1.00
73546;PMS7003;61807;48.384;-4.386;2023-01-01T07:08:28;8.75;2.75;1.00
73546;PMS7003;61807;48.384;-4.386;2023-01-01T07:10:54;7.00;2.00;1.00
73546;PMS7003;61807;48.384;-4.386;2023-01-01T07:13:21;13.50;3.00;1.00
73546;PMS7003;61807;48.384;-4.386;2023-01-01T07:15:51;7.50;2.25;1.00
73546;PMS7003;61807;48.384;-4.386;2023-01-01T07:18:17;9.00;1.50;1.00
73546;PMS7003;61807;48.384;-4.386;2023-01-01T07:20:47;9.25;3.00;1.00
73546;PMS7003;61807;48.384;-4.386;2023-01-01T07:23:15;9.00;2.00;1.00
73546;PMS7003;61807;48.384;-4.386;2023-01-01T07:25:40;10.00;4.75;1.00
73546;PMS7003;61807;48.384;-4.386;2023-01-01T07:28:06;9.50;2.25;1.00
73546;PMS7003;61807;48.384;-4.386;2023-01-01T07:30:31;6.50;4.00;0.50
73546;PMS7003;61807;48.384;-4.386;2023-01-01T07:32:57;8.50;2.00;1.00
73546;PMS7003;61807;48.384;-4.386;2023-01-01T07:35:22;5.25;4.00;1.50
73546;PMS7003;61807;48.384;-4.386;2023-01-01T07:37:48;7.50;2.00;1.00
73546;PMS7003;61807;48.384;-4.386;2023-01-01T07:40:13;6.75;2.25;1.25
73546;PMS7003;61807;48.384;-4.386;2023-01-01T07:42:39;4.25;2.75;1.00
73546;PMS7003;61807;48.384;-4.386;2023-01-01T07:45:04;7.50;4.00;1.00
73546;PMS7003;61807;48.384;-4.386;2023-01-01T07:47:31;7.75;2.50;1.00
73546;PMS7003;61807;48.384;-4.386;2023-01-01T07:49:57;12.00;5.00;1.00
73546;PMS7003;61807;48.384;-4.386;2023-01-01T07:52:22;9.25;2.25;0.75
73546;PMS7003;61807;48.384;-4.386;2023-01-01T07:54:48;13.75;3.25;0.25
73546;PMS7003;61807;48.384;-4.386;2023-01-01T07:57:13;10.25;5.50;1.00
73546;PMS7003;61807;48.384;-4.386;2023-01-01T07:59:39;9.75;3.00;1.50
73546;PMS7003;61807;48.384;-4.386;2023-01-01T08:02:05;5.50;2.75;1.00
73546;PMS7003;61807;48.384;-4.386;2023-01-01T08:04:30;8.25;4.00;2.00
73546;PMS7003;61807;48.384;-4.386;2023-01-01T08:06:56;15.50;2.25;1.00
73546;PMS7003;61807;48.384;-4.386;2023-01-01T08:09:21;7.75;3.00;1.00
73546;PMS7003;61807;48.384;-4.386;2023-01-01T08:11:46;8.50;3.25;1.25
73546;PMS7003;61807;48.384;-4.386;2023-01-01T08:14:12;17.50;6.00;2.00
73546;PMS7003;61807;48.384;-4.386;2023-01-01T08:16:37;4.25;3.00;1.00
73546;PMS7003;61807;48.384;-4.386;2023-01-01T08:19:03;8.75;2.25;0.50
73546;PMS7003;61807;48.384;-4.386;2023-01-01T08:21:29;6.50;2.25;1.00
73546;PMS7003;61807;48.384;-4.386;2023-01-01T08:23:54;4.25;2.00;1.00
73546;PMS7003;61807;48.384;-4.386;2023-01-01T08:26:33;9.25;3.00;1.25
73546;PMS7003;61807;48.384;-4.386;2023-01-01T08:29:03;8.00;1.75;1.00
73546;PMS7003;61807;48.384;-4.386;2023-01-01T08:31:30;8.00;3.00;1.00
73546;PMS7003;61807;48.384;-4.386;2023-01-01T08:33:55;12.50;4.00;1.00
73546;PMS7003;61807;48.384;-4.386;2023-01-01T08:36:21;6.00;2.50;1.00
73546;PMS7003;61807;48.384;-4.386;2023-01-01T08:38:47;11.00;2.50;0.25
73546;PMS7003;61807;48.384;-4.386;2023-01-01T08:41:12;10.00;3.50;1.00
73546;PMS7003;61807;48.384;-4.386;2023-01-01T08:43:37;7.00;1.75;0.25
73546;PMS7003;61807;48.384;-4.386;2023-01-01T08:46:03;5.50;2.00;0.25
73546;PMS7003;61807;48.384;-4.386;2023-01-01T08:48:28;8.00;2.00;1.00
73546;PMS7003;61807;48.384;-4.386;2023-01-01T08:50:54;10.75;5.50;2.00
73546;PMS7003;61807;48.384;-4.386;2023-01-01T08:53:24;5.25;2.00;0.00
73546;PMS7003;61807;48.384;-4.386;2023-01-01T08:55:59;4.00;2.50;1.00
73546;PMS7003;61807;48.384;-4.386;2023-01-01T08:58:27;5.50;2.50;0.25
73546;PMS7003;61807;48.384;-4.386;2023-01-01T09:00:54;7.75;1.50;0.00
73546;PMS7003;61807;48.384;-4.386;2023-01-01T09:03:19;3.25;2.00;0.00
73546;PMS7003;61807;48.384;-4.386;2023-01-01T09:05:45;4.50;1.75;0.50
73546;PMS7003;61807;48.384;-4.386;2023-01-01T09:08:11;4.00;1.00;0.00
73546;PMS7003;61807;48.384;-4.386;2023-01-01T09:10:37;14.25;2.75;1.50
73546;PMS7003;61807;48.384;-4.386;2023-01-01T09:13:02;9.75;2.00;1.00
73546;PMS7003;61807;48.384;-4.386;2023-01-01T09:15:28;12.75;4.50;1.00
73546;PMS7003;61807;48.384;-4.386;2023-01-01T09:17:53;8.25;3.00;1.00
73546;PMS7003;61807;48.384;-4.386;2023-01-01T09:20:19;6.75;2.00;1.00
73546;PMS7003;61807;48.384;-4.386;2023-01-01T09:22:44;11.00;4.00;1.00
73546;PMS7003;61807;48.384;-4.386;2023-01-01T09:25:10;8.25;3.00;1.25
73546;PMS7003;61807;48.384;-4.386;2023-01-01T09:27:35;14.50;5.50;2.00
73546;PMS7003;61807;48.384;-4.386;2023-01-01T09:30:00;10.75;1.75;0.00
73546;PMS7003;61807;48.384;-4.386;2023-01-01T09:32:26;12.25;3.50;1.00
73546;PMS7003;61807;48.384;-4.386;2023-01-01T09:34:51;12.00;3.75;1.75
73546;PMS7003;61807;48.384;-4.386;2023-01-01T09:37:17;10.00;2.50;1.00
73546;PMS7003;61807;48.384;-4.386;2023-01-01T09:39:42;6.25;3.00;1.00
73546;PMS7003;61807;48.384;-4.386;2023-01-01T09:44:57;15.00;5.00;1.00
73546;PMS7003;61807;48.384;-4.386;2023-01-01T09:50:00;13.75;2.00;0.25
73546;PMS7003;61807;48.384;-4.386;2023-01-01T09:53:12;9.00;2.00;0.00
73546;PMS7003;61807;48.384;-4.386;2023-01-01T09:55:21;6.25;3.00;1.75
73546;PMS7003;61807;48.384;-4.386;2023-01-01T09:57:51;10.75;4.50;1.00
73546;PMS7003;61807;48.384;-4.386;2023-01-01T10:00:19;15.75;3.50;1.75
73546;PMS7003;61807;48.384;-4.386;2023-01-01T10:02:53;10.00;3.00;1.00
73546;PMS7003;61807;48.384;-4.386;2023-01-01T10:05:40;13.50;3.50;1.00
73546;PMS7003;61807;48.384;-4.386;2023-01-01T10:11:49;6.25;2.00;1.00
73546;PMS7003;61807;48.384;-4.386;2023-01-01T10:13:51;8.25;2.75;1.00
73546;PMS7003;61807;48.384;-4.386;2023-01-01T10:18:44;4.50;1.25;0.00
73546;PMS7003;61807;48.384;-4.386;2023-01-01T10:21:15;4.75;2.25;1.00
73546;PMS7003;61807;48.384;-4.386;2023-01-01T10:23:46;9.25;2.50;1.25
73546;PMS7003;61807;48.384;-4.386;2023-01-01T10:26:17;5.75;2.50;1.00
73546;PMS7003;61807;48.384;-4.386;2023-01-01T10:31:40;3.50;1.00;0.00
73546;PMS7003;61807;48.384;-4.386;2023-01-01T10:34:19;11.25;1.25;0.00
73546;PMS7003;61807;48.384;-4.386;2023-01-01T10:36:53;10.00;2.25;0.00
73546;PMS7003;61807;48.384;-4.386;2023-01-01T10:39:20;10.00;3.00;1.00
73546;PMS7003;61807;48.384;-4.386;2023-01-01T10:41:46;4.50;1.00;0.75
73546;PMS7003;61807;48.384;-4.386;2023-01-01T10:44:12;2.00;1.00;1.00
73546;PMS7003;61807;48.384;-4.386;2023-01-01T10:46:42;4.00;3.00;1.00
73546;PMS7003;61807;48.384;-4.386;2023-01-01T10:49:12;3.00;2.00;1.00
73546;PMS7003;61807;48.384;-4.386;2023-01-01T10:51:45;7.00;2.00;0.00
73546;PMS7003;61807;48.384;-4.386;2023-01-01T10:54:34;6.00;1.00;0.00
73546;PMS7003;61807;48.384;-4.386;2023-01-01T10:57:16;4.50;1.00;0.00
73546;PMS7003;61807;48.384;-4.386;2023-01-01T10:59:51;6.00;2.50;0.00
73546;PMS7003;61807;48.384;-4.386;2023-01-01T11:02:21;1.75;1.75;0.50
73546;PMS7003;61807;48.384;-4.386;2023-01-01T11:04:49;5.00;0.75;0.00
73546;PMS7003;61807;48.384;-4.386;2023-01-01T11:07:19;1.00;0.75;0.00
73546;PMS7003;61807;48.384;-4.386;2023-01-01T11:09:57;4.00;0.00;0.00
73546;PMS7003;61807;48.384;-4.386;2023-01-01T11:12:26;10.50;1.00;0.00
73546;PMS7003;61807;48.384;-4.386;2023-01-01T11:14:55;5.00;0.50;0.00
73546;PMS7003;61807;48.384;-4.386;2023-01-01T11:17:23;5.75;1.00;0.00
73546;PMS7003;61807;48.384;-4.386;2023-01-01T11:20:00;4.25;0.00;0.00
73546;PMS7003;61807;48.384;-4.386;2023-01-01T11:22:40;3.00;0.50;0.00
73546;PMS7003;61807;48.384;-4.386;2023-01-01T11:25:29;3.25;1.00;0.00
73546;PMS7003;61807;48.384;-4.386;2023-01-01T11:30:59;5.50;1.00;0.00
73546;PMS7003;61807;48.384;-4.386;2023-01-01T11:33:26;3.25;1.00;0.50
73546;PMS7003;61807;48.384;-4.386;2023-01-01T11:35:53;5.75;2.00;1.00
73546;PMS7003;61807;48.384;-4.386;2023-01-01T11:38:20;3.50;1.75;1.00
73546;PMS7003;61807;48.384;-4.386;2023-01-01T11:40:48;1.75;1.75;0.25
73546;PMS7003;61807;48.384;-4.386;2023-01-01T11:43:21;2.00;1.00;0.00
73546;PMS7003;61807;48.384;-4.386;2023-01-01T11:45:48;4.75;2.00;1.00
73546;PMS7003;61807;48.384;-4.386;2023-01-01T11:48:17;2.00;1.00;0.00
73546;PMS7003;61807;48.384;-4.386;2023-01-01T11:50:49;2.00;1.75;0.00
73546;PMS7003;61807;48.384;-4.386;2023-01-01T11:58:29;4.00;2.00;0.00
73546;PMS7003;61807;48.384;-4.386;2023-01-01T12:01:18;2.50;0.75;0.00
73546;PMS7003;61807;48.384;-4.386;2023-01-01T12:04:07;6.75;0.25;0.00
73546;PMS7003;61807;48.384;-4.386;2023-01-01T12:11:53;1.50;1.00;0.00
73546;PMS7003;61807;48.384;-4.386;2023-01-01T12:14:47;1.75;1.00;0.00
73546;PMS7003;61807;48.384;-4.386;2023-01-01T12:17:42;3.75;1.00;0.00
73546;PMS7003;61807;48.384;-4.386;2023-01-01T12:22:48;3.00;2.00;1.00
73546;PMS7003;61807;48.384;-4.386;2023-01-01T12:25:17;5.25;1.00;0.25
73546;PMS7003;61807;48.384;-4.386;2023-01-01T12:30:26;3.50;1.00;0.75
73546;PMS7003;61807;48.384;-4.386;2023-01-01T12:33:20;1.25;0.50;0.00
73546;PMS7003;61807;48.384;-4.386;2023-01-01T12:41:16;5.75;1.00;1.00
73546;PMS7003;61807;48.384;-4.386;2023-01-01T12:59:33;3.75;0.25;0.00
73546;PMS7003;61807;48.384;-4.386;2023-01-01T13:02:08;1.00;0.00;0.00
73546;PMS7003;61807;48.384;-4.386;2023-01-01T13:04:59;0.00;0.00;0.00
73546;PMS7003;61807;48.384;-4.386;2023-01-01T13:07:29;1.00;0.00;0.00
73546;PMS7003;61807;48.384;-4.386;2023-01-01T13:10:02;2.00;0.50;0.00
73546;PMS7003;61807;48.384;-4.386;2023-01-01T13:12:51;0.25;0.00;0.00
73546;PMS7003;61807;48.384;-4.386;2023-01-01T13:18:06;1.00;0.00;0.00
73546;PMS7003;61807;48.384;-4.386;2023-01-01T13:28:42;2.25;0.50;0.00
73546;PMS7003;61807;48.384;-4.386;2023-01-01T13:45:25;4.25;1.25;1.00
73546;PMS7003;61807;48.384;-4.386;2023-01-01T13:56:07;5.75;2.00;0.00
73546;PMS7003;61807;48.384;-4.386;2023-01-01T14:03:46;2.00;1.00;0.00
73546;PMS7003;61807;48.384;-4.386;2023-01-01T14:06:37;2.25;1.00;0.25
73546;PMS7003;61807;48.384;-4.386;2023-01-01T14:09:10;4.00;0.50;0.25
73546;PMS7003;61807;48.384;-4.386;2023-01-01T14:11:36;4.75;0.75;0.25
73546;PMS7003;61807;48.384;-4.386;2023-01-01T14:14:01;2.25;1.00;1.00
73546;PMS7003;61807;48.384;-4.386;2023-01-01T14:16:26;1.75;0.75;0.00
73546;PMS7003;61807;48.384;-4.386;2023-01-01T14:18:56;4.00;1.00;0.00
73546;PMS7003;61807;48.384;-4.386;2023-01-01T14:21:25;2.50;0.00;0.00
73546;PMS7003;61807;48.384;-4.386;2023-01-01T14:23:59;3.00;0.00;0.00
73546;PMS7003;61807;48.384;-4.386;2023-01-01T14:26:28;5.25;0.00;0.00
73546;PMS7003;61807;48.384;-4.386;2023-01-01T14:29:00;5.00;1.00;0.25
73546;PMS7003;61807;48.384;-4.386;2023-01-01T14:31:30;8.00;2.00;1.00
73546;PMS7003;61807;48.384;-4.386;2023-01-01T14:33:59;4.25;1.75;0.00
73546;PMS7003;61807;48.384;-4.386;2023-01-01T14:36:30;1.75;1.00;0.50
73546;PMS7003;61807;48.384;-4.386;2023-01-01T14:38:57;5.25;0.00;0.00
73546;PMS7003;61807;48.384;-4.386;2023-01-01T14:43:56;2.75;0.00;0.00
73546;PMS7003;61807;48.384;-4.386;2023-01-01T14:46:28;1.00;1.00;0.00
73546;PMS7003;61807;48.384;-4.386;2023-01-01T14:48:59;2.50;1.50;0.25
73546;PMS7003;61807;48.384;-4.386;2023-01-01T14:51:28;3.00;1.00;0.00
73546;PMS7003;61807;48.384;-4.386;2023-01-01T14:53:56;4.00;1.00;0.00
73546;PMS7003;61807;48.384;-4.386;2023-01-01T14:58:50;7.25;0.00;0.00
73546;PMS7003;61807;48.384;-4.386;2023-01-01T15:01:19;1.50;0.50;0.00
73546;PMS7003;61807;48.384;-4.386;2023-01-01T15:04:00;0.00;0.00;0.00
73546;PMS7003;61807;48.384;-4.386;2023-01-01T15:06:28;3.25;0.00;0.00
73546;PMS7003;61807;48.384;-4.386;2023-01-01T15:08:54;0.00;0.00;0.00
73546;PMS7003;61807;48.384;-4.386;2023-01-01T15:11:20;5.00;2.25;1.50
73546;PMS7003;61807;48.384;-4.386;2023-01-01T15:13:56;3.50;1.25;1.00
73546;PMS7003;61807;48.384;-4.386;2023-01-01T15:16:26;1.25;0.25;0.00
73546;PMS7003;61807;48.384;-4.386;2023-01-01T15:18:53;3.00;1.00;0.25
73546;PMS7003;61807;48.384;-4.386;2023-01-01T15:24:03;4.50;0.25;0.00
73546;PMS7003;61807;48.384;-4.386;2023-01-01T15:26:42;1.00;1.00;0.25
73546;PMS7003;61807;48.384;-4.386;2023-01-01T15:29:20;1.00;1.00;0.75
73546;PMS7003;61807;48.384;-4.386;2023-01-01T15:32:10;2.75;1.00;1.00
73546;PMS7003;61807;48.384;-4.386;2023-01-01T15:34:42;2.00;0.75;0.50
73546;PMS7003;61807;48.384;-4.386;2023-01-01T15:37:18;4.75;2.00;1.00
73546;PMS7003;61807;48.384;-4.386;2023-01-01T15:39:48;1.25;1.00;0.00
73546;PMS7003;61807;48.384;-4.386;2023-01-01T15:42:36;3.75;1.00;0.00
73546;PMS7003;61807;48.384;-4.386;2023-01-01T15:47:42;2.00;1.00;0.25
73546;PMS7003;61807;48.384;-4.386;2023-01-01T15:50:09;1.25;0.00;0.00
73546;PMS7003;61807;48.384;-4.386;2023-01-01T15:52:43;2.00;0.00;0.00
73546;PMS7003;61807;48.384;-4.386;2023-01-01T15:55:13;2.25;0.75;0.00
73546;PMS7003;61807;48.384;-4.386;2023-01-01T15:57:43;6.50;1.00;0.00
73546;PMS7003;61807;48.384;-4.386;2023-01-01T16:00:17;0.00;0.00;0.00
73546;PMS7003;61807;48.384;-4.386;2023-01-01T16:02:45;1.00;0.75;0.00
73546;PMS7003;61807;48.384;-4.386;2023-01-01T16:05:14;4.00;1.00;1.00
73546;PMS7003;61807;48.384;-4.386;2023-01-01T16:07:42;3.50;1.50;1.00
73546;PMS7003;61807;48.384;-4.386;2023-01-01T16:10:15;2.00;2.00;1.00
73546;PMS7003;61807;48.384;-4.386;2023-01-01T16:12:41;8.00;2.75;2.25
73546;PMS7003;61807;48.384;-4.386;2023-01-01T16:15:09;11.75;8.00;7.25
73546;PMS7003;61807;48.384;-4.386;2023-01-01T16:17:39;7.00;4.25;4.00
73546;PMS7003;61807;48.384;-4.386;2023-01-01T16:20:05;7.00;3.25;3.00
73546;PMS7003;61807;48.384;-4.386;2023-01-01T16:22:31;3.00;2.50;2.00
73546;PMS7003;61807;48.384;-4.386;2023-01-01T16:24:56;7.00;3.00;1.00
73546;PMS7003;61807;48.384;-4.386;2023-01-01T16:27:22;4.50;3.00;2.25
73546;PMS7003;61807;48.384;-4.386;2023-01-01T16:29:47;5.50;3.00;2.00
73546;PMS7003;61807;48.384;-4.386;2023-01-01T16:32:16;23.75;17.00;9.00
73546;PMS7003;61807;48.384;-4.386;2023-01-01T16:34:42;14.25;10.00;7.00
73546;PMS7003;61807;48.384;-4.386;2023-01-01T16:37:07;12.00;10.00;7.00
73546;PMS7003;61807;48.384;-4.386;2023-01-01T16:39:33;12.75;11.00;8.25
73546;PMS7003;61807;48.384;-4.386;2023-01-01T16:41:58;12.25;11.50;8.50
73546;PMS7003;61807;48.384;-4.386;2023-01-01T16:44:24;9.75;6.00;4.75